Time;durP1;ratioP1;P1;durP2;ratioP2;P2;SDS_P1;SDS_P2;PMS_P1;PMS_P2;Temp;Humidity;BMP_temperature;BMP_pressure;BME280_temperature;BME280_humidity;BME280_pressure;Samples;Min_cycle;Max_cycle;Signal;HPM_P1;HPM_P2
2023/11/17 00:03:16;;;;;;;9.15;2.72;;;;;;;9.21;75.93;100006.75;10403544;28;20520;-60
2023/11/17 00:08:18;;;;;;;4.57;1.90;;;;;;;9.14;76.09;100011.97;10382278;28;20540;-60
2023/11/17 00:13:19;;;;;;;4.43;2.08;;;;;;;9.19;75.92;100030.22;10395852;28;20094;-60
2023/11/17 00:18:21;;;;;;;5.85;2.35;;;;;;;9.29;75.18;100038.88;10409093;28;20042;-60
2023/11/17 00:23:22;;;;;;;4.93;2.53;;;;;;;9.32;75.48;100043.88;10407410;28;20044;-60
2023/11/17 00:28:24;;;;;;;9.68;1.98;;;;;;;9.30;75.98;100033.34;10410566;28;20056;-60
2023/11/17 00:33:25;;;;;;;6.93;1.90;;;;;;;9.24;75.64;100052.84;10407070;28;20046;-60
2023/11/17 00:38:31;;;;;;;5.90;1.98;;;;;;;9.11;76.13;100053.38;10395251;28;20648;-60
2023/11/17 00:43:33;;;;;;;4.60;2.17;;;;;;;9.13;75.69;100058.56;10404887;28;20049;-60
2023/11/17 00:48:34;;;;;;;5.88;2.00;;;;;;;9.16;75.61;100065.41;10408932;28;20400;-60
2023/11/17 00:53:36;;;;;;;6.78;1.85;;;;;;;9.00;75.90;100080.56;10418929;28;20484;-60
2023/11/17 00:58:37;;;;;;;4.93;2.13;;;;;;;8.90;76.12;100099.50;10411119;28;20041;-60
2023/11/17 01:03:39;;;;;;;4.00;2.05;;;;;;;8.90;76.04;100115.59;10412628;28;20128;-59
2023/11/17 01:08:41;;;;;;;5.50;1.80;;;;;;;8.98;75.86;100127.31;10410203;28;20044;-60
2023/11/17 01:13:43;;;;;;;8.02;2.72;;;;;;;9.03;75.76;100133.00;10415601;28;20064;-60
2023/11/17 01:18:44;;;;;;;4.53;1.73;;;;;;;9.03;75.50;100151.78;10399048;28;20038;-60
2023/11/17 01:23:45;;;;;;;4.80;1.70;;;;;;;9.01;75.88;100160.00;10410889;28;20464;-60
2023/11/17 01:28:47;;;;;;;9.52;1.60;;;;;;;9.05;75.71;100160.50;10406977;28;20401;-60
2023/11/17 01:33:49;;;;;;;4.90;1.73;;;;;;;9.08;75.52;100176.22;10404926;28;20058;-60
2023/11/17 01:38:52;;;;;;;5.65;1.63;;;;;;;9.12;75.40;100180.22;10414772;28;20052;-60
2023/11/17 01:43:55;;;;;;;4.20;1.65;;;;;;;9.13;75.32;100190.78;10406746;28;20056;-60
2023/11/17 01:48:56;;;;;;;7.75;1.92;;;;;;;9.21;75.22;100194.47;10402914;28;20041;-61
2023/11/17 01:53:58;;;;;;;7.40;1.60;;;;;;;9.25;75.02;100210.03;10418384;28;20488;-60
2023/11/17 01:58:59;;;;;;;4.18;1.65;;;;;;;9.29;74.98;100214.06;10402964;28;20048;-60
2023/11/17 02:04:02;;;;;;;4.07;1.65;;;;;;;9.42;74.78;100228.78;10411520;28;20053;-61
2023/11/17 02:09:15;;;;;;;4.85;1.63;;;;;;;9.50;74.28;100236.84;10405358;28;20073;-62
2023/11/17 02:14:21;;;;;;;2.83;2.03;;;;;;;9.55;74.28;100239.81;10405515;28;20057;-61
2023/11/17 02:19:43;;;;;;;5.47;2.13;;;;;;;9.65;74.25;100245.00;10395284;28;20447;-61
2023/11/17 02:25:01;;;;;;;6.97;2.25;;;;;;;9.70;74.22;100253.38;10403290;28;20519;-61
2023/11/17 02:30:05;;;;;;;5.13;1.90;;;;;;;9.75;74.23;100250.16;10407798;28;20041;-61
2023/11/17 02:35:08;;;;;;;2.53;1.92;;;;;;;9.78;74.10;100255.19;10405378;28;20076;-61
2023/11/17 02:40:19;;;;;;;6.22;2.15;;;;;;;9.83;74.30;100255.50;10413399;28;20053;-61
2023/11/17 02:45:20;;;;;;;5.72;2.72;;;;;;;9.84;74.15;100259.88;10403224;28;20505;-61
2023/11/17 02:50:31;;;;;;;7.68;2.55;;;;;;;9.80;74.19;100261.22;10395794;28;20127;-61
2023/11/17 02:55:35;;;;;;;4.93;2.70;;;;;;;9.86;74.10;100276.66;10399079;28;20055;-61
2023/11/17 03:00:37;;;;;;;7.80;2.95;;;;;;;9.88;74.05;100291.56;10391147;28;20140;-61
2023/11/17 03:05:39;;;;;;;6.25;1.85;;;;;;;9.85;74.21;100294.59;10412927;28;20049;-61
2023/11/17 03:10:40;;;;;;;4.80;1.80;;;;;;;9.92;74.48;100303.63;10412269;28;20049;-60
2023/11/17 03:15:43;;;;;;;6.20;2.28;;;;;;;9.88;74.16;100306.84;10402185;28;20125;-60
2023/11/17 03:20:45;;;;;;;4.07;2.65;;;;;;;9.82;74.49;100318.28;10405615;28;20050;-60
2023/11/17 03:25:46;;;;;;;4.45;2.15;;;;;;;9.79;74.63;100327.47;10409226;28;20626;-60
2023/11/17 03:30:47;;;;;;;8.05;2.75;;;;;;;9.80;74.49;100331.84;10400480;28;20048;-60
2023/11/17 03:35:50;;;;;;;6.70;2.53;;;;;;;9.81;74.22;100340.75;10403294;28;20050;-60
2023/11/17 03:40:55;;;;;;;4.07;2.05;;;;;;;9.84;74.37;100351.97;10393606;28;20137;-60
2023/11/17 03:45:56;;;;;;;10.90;2.55;;;;;;;9.86;74.04;100358.00;10390158;28;20405;-60
2023/11/17 03:50:58;;;;;;;8.40;2.28;;;;;;;9.91;74.07;100362.88;10421608;28;20044;-60
2023/11/17 03:55:59;;;;;;;6.55;2.60;;;;;;;9.91;73.81;100360.19;10397690;28;20056;-60
2023/11/17 04:01:00;;;;;;;7.40;2.70;;;;;;;9.82;74.11;100366.59;10408458;28;20053;-60
2023/11/17 04:06:03;;;;;;;3.55;2.47;;;;;;;9.79;74.21;100377.66;10414850;28;20064;-60
2023/11/17 04:11:05;;;;;;;6.65;2.67;;;;;;;9.76;74.41;100386.06;10414423;28;20042;-60
2023/11/17 04:16:06;;;;;;;10.55;3.47;;;;;;;9.82;74.15;100393.44;10413304;28;20403;-60
2023/11/17 04:21:10;;;;;;;8.27;3.55;;;;;;;9.79;73.96;100389.22;10409988;28;20054;-60
2023/11/17 04:26:11;;;;;;;10.10;4.07;;;;;;;9.75;74.05;100403.16;10403062;28;20103;-60
2023/11/17 04:31:13;;;;;;;6.40;3.50;;;;;;;9.64;74.28;100402.50;10406891;28;20041;-60
2023/11/17 04:36:16;;;;;;;7.45;3.83;;;;;;;9.50;74.39;100401.34;10412957;28;20516;-60
2023/11/17 04:41:19;;;;;;;8.55;3.80;;;;;;;9.38;74.59;100413.41;10412115;28;20514;-60
2023/11/17 04:46:21;;;;;;;13.32;5.32;;;;;;;9.25;74.58;100410.38;10412447;28;20669;-60
2023/11/17 04:51:23;;;;;;;6.38;3.60;;;;;;;9.17;74.34;100416.56;10410097;28;20056;-60
2023/11/17 04:56:24;;;;;;;8.65;4.28;;;;;;;9.05;74.36;100423.25;10408689;28;20404;-61
2023/11/17 05:01:26;;;;;;;9.10;4.22;;;;;;;8.86;74.56;100429.72;10402640;28;20049;-60
2023/11/17 05:06:27;;;;;;;11.98;5.75;;;;;;;8.79;74.50;100426.00;10396501;28;20049;-60
2023/11/17 05:11:30;;;;;;;10.10;5.68;;;;;;;8.71;74.40;100427.69;10408731;28;20061;-61
2023/11/17 05:16:36;;;;;;;16.10;5.72;;;;;;;8.60;74.44;100438.69;10404748;28;20053;-60
2023/11/17 05:21:38;;;;;;;11.43;5.68;;;;;;;8.50;74.29;100444.16;10415194;28;20076;-61
2023/11/17 05:26:40;;;;;;;40.65;5.43;;;;;;;8.47;74.26;100446.31;10407847;28;20053;-60
2023/11/17 05:31:42;;;;;;;12.80;4.82;;;;;;;8.46;73.97;100450.00;10411281;28;20049;-60
2023/11/17 05:36:43;;;;;;;10.57;5.28;;;;;;;8.44;73.76;100452.00;10402866;28;20084;-60
2023/11/17 05:41:45;;;;;;;11.30;6.60;;;;;;;8.36;74.13;100462.66;10412728;28;20059;-60
2023/11/17 05:46:48;;;;;;;15.35;7.40;;;;;;;8.33;73.80;100467.31;10400273;28;20057;-60
2023/11/17 05:51:49;;;;;;;18.58;6.30;;;;;;;8.27;74.05;100472.47;10403068;28;20867;-60
2023/11/17 05:56:53;;;;;;;12.85;5.13;;;;;;;8.19;73.90;100473.25;10401271;28;20439;-60
2023/11/17 06:01:55;;;;;;;12.00;5.38;;;;;;;8.12;73.91;100477.56;10398831;28;20058;-60
2023/11/17 06:06:56;;;;;;;14.63;5.90;;;;;;;7.98;74.67;100481.66;10411654;28;20409;-60
2023/11/17 06:11:58;;;;;;;10.13;5.43;;;;;;;7.95;74.40;100487.31;10391306;28;20045;-60
2023/11/17 06:17:00;;;;;;;14.80;6.18;;;;;;;7.88;74.23;100497.78;10406566;28;20425;-60
2023/11/17 06:22:02;;;;;;;11.70;5.13;;;;;;;7.79;74.64;100512.09;10402403;28;20447;-60
2023/11/17 06:27:04;;;;;;;13.57;6.13;;;;;;;7.72;74.55;100505.66;10405372;28;20069;-60
2023/11/17 06:32:06;;;;;;;12.48;6.00;;;;;;;7.69;74.80;100522.03;10398796;28;20042;-60
2023/11/17 06:37:09;;;;;;;13.63;5.97;;;;;;;7.66;74.23;100525.00;10405047;28;20590;-61
2023/11/17 06:42:10;;;;;;;13.85;6.28;;;;;;;7.66;74.52;100528.56;10385440;28;20045;-65
2023/11/17 06:47:12;;;;;;;18.15;7.20;;;;;;;7.68;74.52;100529.25;10406593;28;20056;-64
2023/11/17 06:52:14;;;;;;;23.67;7.97;;;;;;;7.63;74.84;100534.19;10401540;28;20049;-64
2023/11/17 06:57:16;;;;;;;16.85;7.03;;;;;;;7.64;74.45;100540.38;10406276;28;20041;-64
2023/11/17 07:02:19;;;;;;;13.77;6.80;;;;;;;7.67;74.77;100540.91;10402175;28;20133;-63
2023/11/17 07:07:20;;;;;;;17.25;7.38;;;;;;;7.70;74.15;100540.63;10406923;28;20049;-63
2023/11/17 07:12:23;;;;;;;16.98;6.95;;;;;;;7.71;74.30;100544.97;10378033;28;20048;-63
2023/11/17 07:17:25;;;;;;;12.93;7.20;;;;;;;7.69;74.66;100544.28;10396096;28;20443;-62
2023/11/17 07:22:27;;;;;;;14.80;6.53;;;;;;;7.72;74.49;100554.69;10392975;28;20051;-62
2023/11/17 07:27:28;;;;;;;13.10;6.38;;;;;;;7.73;74.37;100564.38;10404047;28;20069;-62
2023/11/17 07:32:30;;;;;;;13.10;7.20;;;;;;;7.78;74.98;100563.09;10386578;28;20042;-62
2023/11/17 07:37:32;;;;;;;15.23;8.40;;;;;;;7.75;74.39;100578.44;10398149;28;20040;-62
2023/11/17 07:42:33;;;;;;;15.88;9.05;;;;;;;7.65;75.21;100587.56;10403254;28;20049;-62
2023/11/17 07:47:38;;;;;;;18.75;7.70;;;;;;;7.67;75.18;100594.44;10403156;28;20053;-63
2023/11/17 07:52:45;;;;;;;16.15;8.60;;;;;;;7.81;74.27;100598.41;10399334;28;20141;-62
2023/11/17 07:57:47;;;;;;;20.25;7.63;;;;;;;7.90;74.74;100604.72;10397727;28;20049;-62
2023/11/17 08:02:50;;;;;;;25.25;7.25;;;;;;;7.95;74.59;100605.06;10401980;28;20037;-62
2023/11/17 08:07:53;;;;;;;15.52;7.07;;;;;;;8.05;74.18;100602.31;10397549;28;20045;-62
2023/11/17 08:12:55;;;;;;;20.23;7.32;;;;;;;8.16;74.47;100611.97;10391236;28;20120;-62
2023/11/17 08:17:57;;;;;;;17.90;9.05;;;;;;;8.25;74.44;100613.72;10391847;28;20084;-62
2023/11/17 08:22:59;;;;;;;19.35;9.88;;;;;;;8.33;74.56;100619.13;10399333;28;20480;-63
2023/11/17 08:28:02;;;;;;;15.15;7.32;;;;;;;8.43;74.29;100636.00;10399920;28;20052;-63
2023/11/17 08:33:07;;;;;;;16.05;7.47;;;;;;;8.46;74.09;100626.81;10404088;28;20507;-62
2023/11/17 08:38:08;;;;;;;12.52;7.25;;;;;;;8.50;74.41;100628.19;10404758;28;20447;-64
2023/11/17 08:43:11;;;;;;;19.92;8.88;;;;;;;8.60;74.03;100631.59;10415123;28;20049;-63
2023/11/17 08:48:13;;;;;;;14.60;6.55;;;;;;;8.68;74.48;100636.19;10394006;28;20136;-65
2023/11/17 08:53:16;;;;;;;17.00;7.00;;;;;;;8.83;74.26;100633.78;10410115;28;20061;-65
2023/11/17 08:58:20;;;;;;;18.88;7.07;;;;;;;8.92;74.09;100639.00;10406069;28;20173;-66
2023/11/17 09:03:21;;;;;;;13.52;5.63;;;;;;;8.98;74.18;100637.53;10446941;28;20036;-65
2023/11/17 09:08:23;;;;;;;12.48;6.88;;;;;;;8.97;74.21;100637.72;10494423;23;20040;-86
2023/11/17 09:13:25;;;;;;;13.35;6.00;;;;;;;9.12;73.96;100636.97;10472968;28;20049;-88
2023/11/17 09:18:28;;;;;;;12.38;6.18;;;;;;;9.29;73.65;100632.50;10490501;28;20033;-87
2023/11/17 09:23:35;;;;;;;14.68;6.68;;;;;;;9.41;73.58;100635.75;10501746;28;20316;-83
2023/11/17 09:28:37;;;;;;;14.93;6.35;;;;;;;9.43;73.44;100633.75;10526685;28;20044;-84
2023/11/17 09:33:40;;;;;;;12.30;6.15;;;;;;;9.48;73.67;100634.13;11130400;22;20068;-83
2023/11/17 09:49:17;;;;;;;12.93;6.70;;;;;;;9.59;73.34;100645.56;10714515;22;20068;-85
2023/11/17 09:59:43;;;;;;;15.85;6.45;;;;;;;9.79;73.10;100652.31;10277832;23;20065;-86
2023/11/17 10:04:45;;;;;;;11.23;4.22;;;;;;;9.94;72.83;100649.84;10992956;23;20216;-89
2023/11/17 10:20:48;;;;;;;7.68;3.63;;;;;;;10.76;71.38;100652.59;10941244;23;20465;-64
2023/11/17 10:25:54;;;;;;;8.48;3.40;;;;;;;10.87;70.64;100652.25;10259764;28;20125;-62
2023/11/17 10:31:05;;;;;;;6.85;3.35;;;;;;;10.97;70.12;100662.84;10295036;28;20070;-70
2023/11/17 10:36:12;;;;;;;6.88;3.88;;;;;;;11.20;69.91;100654.91;10293986;28;20047;-65
2023/11/17 10:41:30;;;;;;;7.18;3.33;;;;;;;11.32;69.92;100664.28;10305151;28;20050;-68
2023/11/17 10:46:40;;;;;;;;;;;;;;;11.48;70.78;100654.47;10300743;28;20042;-67
2023/11/17 10:51:46;;;;;;;5.38;2.28;;;;;;;11.65;69.94;100655.22;10308529;28;19926;-65
2023/11/17 10:56:48;;;;;;;5.78;3.25;;;;;;;11.71;69.35;100660.75;10307073;28;20050;-69
2023/11/17 11:01:51;;;;;;;5.75;2.20;;;;;;;11.90;68.64;100666.75;10299661;28;20055;-66
2023/11/17 11:06:54;;;;;;;4.68;2.20;;;;;;;11.84;68.81;100662.03;10294843;28;20138;-60
2023/11/17 11:17:13;;;;;;;8.48;2.35;;;;;;;12.04;67.85;100657.91;2438390;23;20142;-67
2023/11/17 11:22:16;;;;;;;4.95;2.63;;;;;;;12.36;66.76;100652.47;10264279;28;20055;-63
2023/11/17 11:27:18;;;;;;;5.68;2.47;;;;;;;12.58;66.35;100653.47;10286750;28;20130;-63
2023/11/17 11:32:20;;;;;;;7.72;2.88;;;;;;;12.65;66.26;100646.31;10262491;28;20058;-61
2023/11/17 11:37:23;;;;;;;4.57;1.33;;;;;;;12.67;65.48;100646.97;10281944;28;20055;-65
2023/11/17 11:42:25;;;;;;;3.17;1.70;;;;;;;12.90;65.22;100655.88;10280864;28;20078;-66
2023/11/17 11:47:28;;;;;;;3.53;1.75;;;;;;;12.97;64.64;100655.13;10277491;28;20409;-66
2023/11/17 11:52:35;;;;;;;5.47;1.58;;;;;;;12.98;64.53;100654.13;10287661;28;20109;-67
2023/11/17 11:57:36;;;;;;;2.42;1.13;;;;;;;12.94;64.30;100650.13;10285515;28;20104;-66
2023/11/17 12:02:52;;;;;;;4.20;1.23;;;;;;;12.89;64.25;100647.94;10280306;28;20050;-67
2023/11/17 12:07:56;;;;;;;4.95;1.13;;;;;;;12.80;64.47;100647.22;10283910;28;20125;-67
2023/11/17 12:12:58;;;;;;;3.00;1.30;;;;;;;12.96;63.94;100640.81;10297263;28;20402;-68
2023/11/17 12:18:01;;;;;;;2.55;1.10;;;;;;;13.13;63.45;100638.78;10294822;28;20494;-67
2023/11/17 12:23:03;;;;;;;3.20;0.75;;;;;;;13.23;62.81;100646.56;10283393;28;20055;-68
2023/11/17 12:28:05;;;;;;;3.08;1.23;;;;;;;13.42;62.48;100648.75;10279379;28;20051;-68
2023/11/17 12:33:07;;;;;;;5.88;1.23;;;;;;;13.46;62.39;100654.63;10277810;23;20454;-80
2023/11/17 12:38:15;;;;;;;6.60;1.40;;;;;;;13.31;62.27;100657.34;10266427;28;20051;-80
2023/11/17 12:43:16;;;;;;;4.57;2.08;;;;;;;13.16;62.57;100654.59;10269733;28;20056;-79
2023/11/17 12:48:19;;;;;;;4.95;3.00;;;;;;;12.92;62.98;100658.38;10275487;28;20059;-82
2023/11/17 12:53:23;;;;;;;9.52;4.22;;;;;;;12.54;63.69;100673.72;10277396;28;20055;-82
2023/11/17 12:58:24;;;;;;;8.43;4.07;;;;;;;12.01;64.81;100682.50;10210408;28;20413;-82
2023/11/17 13:03:29;;;;;;;9.00;5.18;;;;;;;11.86;65.45;100684.25;10195423;29;20067;-84
2023/11/17 13:08:32;;;;;;;10.43;5.47;;;;;;;11.66;65.79;100694.59;10188994;29;20065;-82
2023/11/17 13:13:44;;;;;;;13.13;6.55;;;;;;;11.24;66.40;100690.38;10196675;29;20080;-83
2023/11/17 13:18:49;;;;;;;15.38;6.88;;;;;;;11.10;66.52;100691.91;10190447;29;20400;-82
2023/11/17 13:23:51;;;;;;;10.70;6.35;;;;;;;10.96;67.36;100700.66;10195638;29;20047;-82
2023/11/17 13:28:54;;;;;;;17.55;7.47;;;;;;;11.06;67.18;100710.25;10204367;29;20047;-79
2023/11/17 13:33:57;;;;;;;16.80;8.38;;;;;;;10.97;67.91;100705.03;10188319;29;20061;-82
2023/11/17 13:39:15;;;;;;;17.88;8.18;;;;;;;10.91;68.15;100707.41;10190153;29;20039;-83
2023/11/17 13:44:26;;;;;;;20.58;9.32;;;;;;;10.73;68.95;100704.06;10177805;29;20063;-83
2023/11/17 13:49:37;;;;;;;21.55;10.13;;;;;;;10.81;69.29;100705.91;10197298;29;20111;-82
2023/11/17 13:54:40;;;;;;;20.05;9.45;;;;;;;10.85;69.29;100705.38;10193343;28;20134;-82
2023/11/17 13:59:43;;;;;;;22.08;9.75;;;;;;;10.87;69.31;100714.13;10174679;29;20511;-82
2023/11/17 14:04:45;;;;;;;21.17;9.35;;;;;;;10.76;70.06;100709.06;10212097;29;20061;-83
2023/11/17 14:09:47;;;;;;;20.58;9.40;;;;;;;10.63;70.14;100720.34;10191179;29;20903;-83
2023/11/17 14:14:49;;;;;;;20.67;10.38;;;;;;;10.49;70.48;100724.53;10194778;29;20130;-83
2023/11/17 14:19:53;;;;;;;29.90;10.20;;;;;;;10.58;70.53;100725.38;10266308;23;21346;-70
2023/11/17 14:24:55;;;;;;;19.55;9.32;;;;;;;10.58;70.12;100732.59;10309387;28;20046;-69
2023/11/17 14:29:57;;;;;;;21.58;9.63;;;;;;;10.56;70.77;100729.25;10281576;28;20076;-70
2023/11/17 14:34:58;;;;;;;25.92;11.25;;;;;;;10.75;70.77;100736.16;10290401;28;20051;-73
2023/11/17 14:40:00;;;;;;;24.75;10.73;;;;;;;10.82;70.89;100735.31;10323399;28;20053;-75
2023/11/17 14:45:04;;;;;;;20.17;10.48;;;;;;;10.89;71.04;100743.53;10311286;28;20069;-69
2023/11/17 14:50:09;;;;;;;22.67;10.50;;;;;;;10.93;70.91;100741.38;10309011;28;20065;-71
2023/11/17 14:55:11;;;;;;;25.05;10.27;;;;;;;10.90;70.79;100740.69;10305193;28;20046;-71
2023/11/17 15:00:18;;;;;;;21.35;9.65;;;;;;;10.78;71.15;100743.88;10290490;28;20053;-70
2023/11/17 15:05:22;;;;;;;26.38;9.88;;;;;;;10.70;71.69;100756.31;10307171;28;20053;-70
2023/11/17 15:10:23;;;;;;;23.33;10.50;;;;;;;10.67;71.66;100764.72;10291538;28;20134;-70
2023/11/17 15:15:28;;;;;;;22.75;10.52;;;;;;;10.64;71.73;100759.69;10298688;28;20046;-69
2023/11/17 15:20:34;;;;;;;23.35;9.75;;;;;;;10.69;71.65;100762.69;10312821;28;20069;-71
2023/11/17 15:25:36;;;;;;;23.17;10.88;;;;;;;10.67;71.68;100766.56;10308736;28;20105;-70
2023/11/17 15:30:45;;;;;;;20.17;9.27;;;;;;;10.58;71.85;100776.44;10300391;28;20042;-70
2023/11/17 15:35:48;;;;;;;21.38;9.18;;;;;;;10.54;72.07;100779.63;10290004;28;20137;-70
2023/11/17 15:40:49;;;;;;;19.88;9.80;;;;;;;10.52;72.20;100786.03;10282738;28;20050;-70
2023/11/17 15:45:51;;;;;;;18.48;9.00;;;;;;;10.60;71.91;100784.34;10273021;28;20042;-71
2023/11/17 15:50:52;;;;;;;26.30;10.75;;;;;;;10.62;71.98;100793.09;10291677;28;20573;-71
2023/11/17 15:55:55;;;;;;;24.23;10.85;;;;;;;10.51;72.33;100781.66;10299308;28;20038;-72
2023/11/17 16:00:56;;;;;;;21.30;10.80;;;;;;;10.39;72.84;100791.03;10293899;28;20379;-66
2023/11/17 16:05:58;;;;;;;20.58;9.93;;;;;;;10.39;73.27;100803.66;10303695;28;20102;-66
2023/11/17 16:10:59;;;;;;;19.30;9.57;;;;;;;10.35;73.48;100810.31;10294550;28;20054;-65
2023/11/17 16:16:06;;;;;;;23.08;9.80;;;;;;;10.28;73.86;100804.72;10311420;28;20050;-66
2023/11/17 16:21:09;;;;;;;26.17;10.98;;;;;;;10.25;73.76;100807.75;10286719;28;20082;-66
2023/11/17 16:26:11;;;;;;;27.85;11.15;;;;;;;10.21;73.95;100818.00;10312512;28;20066;-67
2023/11/17 16:31:14;;;;;;;29.52;11.77;;;;;;;10.23;73.94;100823.19;10326349;28;20057;-70
2023/11/17 16:36:16;;;;;;;27.02;10.70;;;;;;;10.19;74.23;100829.88;10305154;28;20046;-67
2023/11/17 16:41:21;;;;;;;27.75;10.70;;;;;;;10.19;74.01;100832.56;10304540;28;20062;-66
2023/11/17 16:46:22;;;;;;;30.75;12.02;;;;;;;10.20;74.27;100829.72;10325841;28;20105;-66
2023/11/17 16:51:24;;;;;;;23.92;10.88;;;;;;;10.16;74.15;100839.13;10327084;28;20074;-67
2023/11/17 16:56:25;;;;;;;31.95;12.85;;;;;;;9.95;74.77;100854.78;10313057;28;20050;-67
2023/11/17 17:01:27;;;;;;;32.17;12.00;;;;;;;9.89;74.91;100865.19;10313723;28;20105;-66
2023/11/17 17:06:31;;;;;;;30.05;12.00;;;;;;;9.98;74.81;100863.38;10300849;28;20101;-66
2023/11/17 17:11:32;;;;;;;27.52;12.50;;;;;;;10.05;74.94;100867.09;10320241;28;20050;-66
2023/11/17 17:16:34;;;;;;;26.08;10.68;;;;;;;10.07;74.58;100873.16;10324267;28;20054;-64
2023/11/17 17:21:36;;;;;;;32.25;11.27;;;;;;;10.02;74.97;100878.16;10301861;28;20062;-64
2023/11/17 17:26:38;;;;;;;30.48;10.43;;;;;;;10.03;74.67;100885.22;10316992;28;20512;-67
2023/11/17 17:31:40;;;;;;;30.77;13.95;;;;;;;9.91;75.20;100891.84;10290429;28;20498;-66
2023/11/17 17:36:42;;;;;;;27.40;11.88;;;;;;;10.03;75.16;100889.75;10289329;28;20058;-66
2023/11/17 17:41:46;;;;;;;27.02;12.43;;;;;;;10.11;74.58;100897.84;10311354;28;20077;-67
2023/11/17 17:46:47;;;;;;;24.70;11.23;;;;;;;10.11;74.93;100914.81;10315060;28;20142;-65
2023/11/17 17:51:49;;;;;;;27.83;10.40;;;;;;;10.10;75.00;100920.34;10312977;28;20134;-65
2023/11/17 17:56:51;;;;;;;24.48;10.35;;;;;;;9.99;75.29;100931.34;10305762;28;20055;-66
2023/11/17 18:01:53;;;;;;;24.65;10.35;;;;;;;10.02;75.22;100926.50;10292294;28;20527;-66
2023/11/17 18:06:55;;;;;;;19.05;8.75;;;;;;;9.93;75.48;100928.31;10292792;28;20064;-66
2023/11/17 18:11:57;;;;;;;22.17;10.90;;;;;;;9.93;75.46;100922.06;10311987;28;20409;-67
2023/11/17 18:16:59;;;;;;;18.60;8.45;;;;;;;9.82;75.53;100941.97;10304527;28;20059;-66
2023/11/17 18:22:01;;;;;;;20.88;8.60;;;;;;;9.84;75.71;100941.84;10299665;28;20393;-66
2023/11/17 18:27:04;;;;;;;15.45;8.15;;;;;;;9.84;75.60;100942.66;10304034;28;20505;-66
2023/11/17 18:32:06;;;;;;;21.30;8.82;;;;;;;9.79;75.81;100955.69;10307671;28;20054;-66
2023/11/17 18:37:07;;;;;;;13.40;6.97;;;;;;;9.70;75.72;100960.19;10300959;28;20130;-66
2023/11/17 18:42:11;;;;;;;15.88;7.00;;;;;;;9.76;75.27;100965.94;10299450;28;20150;-65
2023/11/17 18:47:12;;;;;;;16.05;7.25;;;;;;;9.73;75.13;100981.34;10307250;28;20042;-65
2023/11/17 18:52:14;;;;;;;14.93;8.20;;;;;;;9.59;75.73;100987.25;10281404;28;20061;-65
2023/11/17 18:57:16;;;;;;;13.55;7.40;;;;;;;9.63;75.04;100983.25;10299787;28;20050;-65
2023/11/17 19:02:17;;;;;;;12.63;6.38;;;;;;;9.66;75.23;100998.22;10299950;28;20061;-66
2023/11/17 19:07:19;;;;;;;16.80;7.72;;;;;;;9.64;74.92;100993.00;10297284;28;20053;-65
2023/11/17 19:12:21;;;;;;;13.10;7.78;;;;;;;9.56;75.49;101005.50;10280659;28;20062;-65
2023/11/17 19:17:23;;;;;;;14.38;7.07;;;;;;;9.57;75.06;101010.72;10285395;28;20050;-65
2023/11/17 19:22:24;;;;;;;16.50;6.97;;;;;;;9.50;75.20;101017.72;10303463;28;20054;-66
2023/11/17 19:27:28;;;;;;;16.10;7.25;;;;;;;9.37;75.85;101019.91;10309140;28;20055;-66
2023/11/17 19:32:30;;;;;;;18.67;7.32;;;;;;;9.25;75.96;101028.16;10304141;28;20096;-62
2023/11/17 19:37:31;;;;;;;14.68;7.40;;;;;;;9.28;75.86;101027.00;10303168;28;20141;-62
2023/11/17 19:42:38;;;;;;;16.35;7.43;;;;;;;9.27;75.43;101028.03;10309035;28;20058;-61
2023/11/17 19:47:40;;;;;;;19.15;8.90;;;;;;;9.15;75.81;101043.47;10287824;28;20039;-65
2023/11/17 19:52:42;;;;;;;16.30;8.13;;;;;;;9.19;75.63;101057.44;10302785;28;20058;-62
2023/11/17 19:57:47;;;;;;;15.88;8.02;;;;;;;9.17;75.54;101065.63;10310208;28;20078;-61
2023/11/17 20:02:50;;;;;;;20.15;8.85;;;;;;;9.19;75.54;101069.00;10306154;28;20449;-61
2023/11/17 20:07:51;;;;;;;21.38;8.50;;;;;;;9.27;75.36;101068.28;10301114;28;20050;-66
2023/11/17 20:12:54;;;;;;;26.60;8.02;;;;;;;9.30;75.22;101084.03;10301502;28;20323;-66
2023/11/17 20:17:55;;;;;;;16.40;6.90;;;;;;;9.26;75.16;101085.34;10298466;28;20113;-65
2023/11/17 20:23:00;;;;;;;17.75;6.95;;;;;;;9.25;75.00;101079.13;10287639;28;20125;-67
2023/11/17 20:28:01;;;;;;;15.77;7.25;;;;;;;9.12;74.83;101084.00;10297071;28;20406;-66
2023/11/17 20:33:04;;;;;;;14.15;7.53;;;;;;;8.95;74.97;101082.13;10288766;28;20459;-66
2023/11/17 20:38:06;;;;;;;18.63;7.07;;;;;;;8.71;75.29;101102.25;10270503;28;20047;-67
2023/11/17 20:43:13;;;;;;;13.70;6.75;;;;;;;8.43;75.99;101118.22;10296182;28;20054;-70
2023/11/17 20:48:14;;;;;;;17.77;6.00;;;;;;;8.33;75.43;101118.22;10332848;28;20054;-72
2023/11/17 20:53:17;;;;;;;19.23;7.60;;;;;;;8.29;75.64;101118.63;10302399;28;20559;-69
2023/11/17 20:58:19;;;;;;;17.45;7.22;;;;;;;8.20;75.15;101128.34;10318904;28;20057;-70
2023/11/17 21:03:22;;;;;;;19.33;8.05;;;;;;;8.08;75.13;101126.81;10289259;28;20466;-70
2023/11/17 21:08:23;;;;;;;18.23;8.52;;;;;;;7.92;75.20;101122.84;10313583;28;20066;-71
2023/11/17 21:13:27;;;;;;;14.70;6.13;;;;;;;7.72;75.23;101147.88;10303055;28;20071;-71
2023/11/17 21:18:29;;;;;;;20.13;7.57;;;;;;;7.63;75.18;101149.56;10324603;28;20046;-71
2023/11/17 21:23:31;;;;;;;19.00;7.15;;;;;;;7.59;74.84;101158.00;10274060;28;20085;-72
2023/11/17 21:28:34;;;;;;;16.45;7.22;;;;;;;7.41;75.12;101150.63;10265213;28;20051;-70
2023/11/17 21:33:35;;;;;;;28.25;11.88;;;;;;;7.23;75.88;101161.13;10245284;28;20058;-72
2023/11/17 21:38:37;;;;;;;21.80;8.55;;;;;;;7.19;75.69;101174.88;10259850;28;20146;-65
2023/11/17 21:43:38;;;;;;;23.85;9.20;;;;;;;7.10;75.25;101177.38;10240484;28;20046;-65
2023/11/17 21:48:41;;;;;;;20.70;9.02;;;;;;;7.01;75.33;101186.19;10244953;28;20741;-65
2023/11/17 21:53:42;;;;;;;22.15;8.50;;;;;;;6.90;75.33;101195.13;10260530;28;20051;-60
2023/11/17 21:58:45;;;;;;;17.83;7.97;;;;;;;6.78;75.69;101181.97;10259924;28;20114;-60
2023/11/17 22:03:47;;;;;;;17.50;7.70;;;;;;;6.70;76.23;101193.31;10254096;28;20050;-60
2023/11/17 22:08:48;;;;;;;19.15;8.50;;;;;;;6.63;75.86;101187.63;10243137;28;20126;-59
2023/11/17 22:13:50;;;;;;;18.95;8.05;;;;;;;6.54;75.62;101193.75;10245882;28;20131;-60
2023/11/17 22:18:53;;;;;;;17.27;8.20;;;;;;;6.51;75.30;101200.19;10245099;28;20070;-59
2023/11/17 22:23:55;;;;;;;30.40;11.88;;;;;;;6.42;75.96;101209.00;10297152;28;20162;-60
2023/11/17 22:28:57;;;;;;;24.60;10.38;;;;;;;6.33;75.50;101223.94;10285207;28;20057;-59
2023/11/17 22:33:58;;;;;;;18.73;9.40;;;;;;;6.26;76.36;101216.56;10301590;28;20443;-60
2023/11/17 22:39:07;;;;;;;25.77;9.73;;;;;;;6.15;75.26;101220.97;10299035;28;20055;-60
2023/11/17 22:44:09;;;;;;;29.52;11.52;;;;;;;6.09;75.84;101234.81;10300949;28;20063;-61
2023/11/17 22:49:11;;;;;;;19.00;7.65;;;;;;;5.98;75.92;101231.31;10288249;28;20054;-60
2023/11/17 22:54:12;;;;;;;21.58;8.55;;;;;;;5.89;75.56;101236.41;10278529;28;20069;-60
2023/11/17 22:59:14;;;;;;;54.28;17.38;;;;;;;5.77;75.27;101232.06;10298227;28;20593;-60
2023/11/17 23:04:15;;;;;;;45.58;15.43;;;;;;;5.66;76.10;101245.38;10300617;28;20134;-63
2023/11/17 23:09:17;;;;;;;23.33;9.90;;;;;;;5.63;75.51;101262.50;10312750;28;20153;-63
2023/11/17 23:14:19;;;;;;;20.50;9.85;;;;;;;5.56;76.27;101256.78;10303381;28;20421;-64
2023/11/17 23:19:20;;;;;;;41.33;15.60;;;;;;;5.47;75.59;101268.19;10307140;28;20141;-63
2023/11/17 23:24:22;;;;;;;33.42;12.35;;;;;;;5.44;75.88;101263.09;10305123;28;20062;-64
2023/11/17 23:29:23;;;;;;;27.25;10.93;;;;;;;5.25;76.21;101274.34;10309198;28;20073;-63
2023/11/17 23:34:24;;;;;;;19.90;8.55;;;;;;;5.25;76.66;101270.81;10302804;28;20057;-63
2023/11/17 23:39:26;;;;;;;13.43;7.70;;;;;;;5.19;76.54;101273.94;10302202;28;20071;-63
2023/11/17 23:44:27;;;;;;;17.33;8.85;;;;;;;5.15;75.81;101273.34;10301613;28;20054;-61